sensor_id;sensor_type;location;lat;lon;timestamp;P1;durP1;ratioP1;P2;durP2;ratioP2
21615;SDS011;10970;48.714;9.584;2023-07-02T00:01:46;0.80;;;0.63;;
21615;SDS011;10970;48.714;9.584;2023-07-02T00:04:12;0.70;;;0.70;;
21615;SDS011;10970;48.714;9.584;2023-07-02T00:06:42;0.70;;;0.67;;
21615;SDS011;10970;48.714;9.584;2023-07-02T00:09:08;0.80;;;0.80;;
21615;SDS011;10970;48.714;9.584;2023-07-02T00:11:38;0.80;;;0.77;;
21615;SDS011;10970;48.714;9.584;2023-07-02T00:14:05;2.30;;;0.90;;
21615;SDS011;10970;48.714;9.584;2023-07-02T00:16:31;1.20;;;1.10;;
21615;SDS011;10970;48.714;9.584;2023-07-02T00:18:58;2.20;;;0.90;;
21615;SDS011;10970;48.714;9.584;2023-07-02T00:21:25;0.90;;;0.90;;
21615;SDS011;10970;48.714;9.584;2023-07-02T00:23:54;1.20;;;1.10;;
21615;SDS011;10970;48.714;9.584;2023-07-02T00:26:22;1.30;;;1.20;;
21615;SDS011;10970;48.714;9.584;2023-07-02T00:28:52;1.40;;;0.73;;
21615;SDS011;10970;48.714;9.584;2023-07-02T00:31:19;1.20;;;1.10;;
21615;SDS011;10970;48.714;9.584;2023-07-02T00:33:44;0.80;;;0.80;;
21615;SDS011;10970;48.714;9.584;2023-07-02T00:36:10;0.80;;;0.80;;
21615;SDS011;10970;48.714;9.584;2023-07-02T00:38:40;1.23;;;1.10;;
21615;SDS011;10970;48.714;9.584;2023-07-02T00:41:07;0.80;;;0.60;;
21615;SDS011;10970;48.714;9.584;2023-07-02T00:43:34;1.00;;;0.87;;
21615;SDS011;10970;48.714;9.584;2023-07-02T00:45:59;0.77;;;0.77;;
21615;SDS011;10970;48.714;9.584;2023-07-02T00:48:25;0.80;;;0.80;;
21615;SDS011;10970;48.714;9.584;2023-07-02T00:50:51;1.80;;;1.07;;
21615;SDS011;10970;48.714;9.584;2023-07-02T00:53:17;3.37;;;1.13;;
21615;SDS011;10970;48.714;9.584;2023-07-02T00:55:43;1.67;;;1.50;;
21615;SDS011;10970;48.714;9.584;2023-07-02T00:58:09;1.00;;;0.90;;
21615;SDS011;10970;48.714;9.584;2023-07-02T01:00:35;2.00;;;1.00;;
21615;SDS011;10970;48.714;9.584;2023-07-02T01:03:01;1.37;;;0.90;;
21615;SDS011;10970;48.714;9.584;2023-07-02T01:05:30;1.60;;;0.80;;
21615;SDS011;10970;48.714;9.584;2023-07-02T01:08:04;1.13;;;1.07;;
21615;SDS011;10970;48.714;9.584;2023-07-02T01:10:31;1.20;;;0.80;;
21615;SDS011;10970;48.714;9.584;2023-07-02T01:13:01;1.40;;;1.13;;
21615;SDS011;10970;48.714;9.584;2023-07-02T01:15:32;1.43;;;0.73;;
21615;SDS011;10970;48.714;9.584;2023-07-02T01:17:59;1.10;;;1.00;;
21615;SDS011;10970;48.714;9.584;2023-07-02T01:20:26;1.73;;;1.03;;
21615;SDS011;10970;48.714;9.584;2023-07-02T01:22:55;0.83;;;0.63;;
21615;SDS011;10970;48.714;9.584;2023-07-02T01:25:23;1.23;;;0.93;;
21615;SDS011;10970;48.714;9.584;2023-07-02T01:27:49;1.17;;;1.07;;
21615;SDS011;10970;48.714;9.584;2023-07-02T01:30:16;1.10;;;1.00;;
21615;SDS011;10970;48.714;9.584;2023-07-02T01:32:42;1.00;;;0.80;;
21615;SDS011;10970;48.714;9.584;2023-07-02T01:35:08;1.30;;;1.20;;
21615;SDS011;10970;48.714;9.584;2023-07-02T01:37:34;0.90;;;0.70;;
21615;SDS011;10970;48.714;9.584;2023-07-02T01:40:02;2.03;;;1.40;;
21615;SDS011;10970;48.714;9.584;2023-07-02T01:42:31;1.27;;;1.20;;
21615;SDS011;10970;48.714;9.584;2023-07-02T01:44:57;2.10;;;1.33;;
21615;SDS011;10970;48.714;9.584;2023-07-02T01:47:23;4.10;;;1.20;;
21615;SDS011;10970;48.714;9.584;2023-07-02T01:49:49;0.70;;;0.70;;
21615;SDS011;10970;48.714;9.584;2023-07-02T01:52:15;1.90;;;1.20;;
21615;SDS011;10970;48.714;9.584;2023-07-02T01:54:41;0.87;;;0.70;;
21615;SDS011;10970;48.714;9.584;2023-07-02T01:57:07;1.00;;;0.80;;
21615;SDS011;10970;48.714;9.584;2023-07-02T01:59:33;1.30;;;1.20;;
21615;SDS011;10970;48.714;9.584;2023-07-02T02:01:59;1.40;;;0.87;;
21615;SDS011;10970;48.714;9.584;2023-07-02T02:04:25;1.03;;;0.93;;
21615;SDS011;10970;48.714;9.584;2023-07-02T02:06:50;1.80;;;1.17;;
21615;SDS011;10970;48.714;9.584;2023-07-02T02:09:17;1.27;;;1.03;;
21615;SDS011;10970;48.714;9.584;2023-07-02T02:11:43;1.33;;;1.23;;
21615;SDS011;10970;48.714;9.584;2023-07-02T02:14:12;1.90;;;1.07;;
21615;SDS011;10970;48.714;9.584;2023-07-02T02:16:37;1.37;;;1.27;;
21615;SDS011;10970;48.714;9.584;2023-07-02T02:19:03;1.27;;;1.07;;
21615;SDS011;10970;48.714;9.584;2023-07-02T02:21:29;1.20;;;1.10;;
21615;SDS011;10970;48.714;9.584;2023-07-02T02:23:55;1.17;;;0.83;;
21615;SDS011;10970;48.714;9.584;2023-07-02T02:26:23;1.53;;;1.20;;
21615;SDS011;10970;48.714;9.584;2023-07-02T02:28:50;1.00;;;0.70;;
21615;SDS011;10970;48.714;9.584;2023-07-02T02:31:16;0.70;;;0.57;;
21615;SDS011;10970;48.714;9.584;2023-07-02T02:33:42;1.17;;;1.07;;
21615;SDS011;10970;48.714;9.584;2023-07-02T02:36:08;2.30;;;1.70;;
21615;SDS011;10970;48.714;9.584;2023-07-02T02:38:34;1.23;;;0.90;;
21615;SDS011;10970;48.714;9.584;2023-07-02T02:41:00;1.07;;;0.97;;
21615;SDS011;10970;48.714;9.584;2023-07-02T02:43:27;1.53;;;0.80;;
21615;SDS011;10970;48.714;9.584;2023-07-02T02:45:52;1.07;;;1.00;;
21615;SDS011;10970;48.714;9.584;2023-07-02T02:48:18;2.70;;;1.00;;
21615;SDS011;10970;48.714;9.584;2023-07-02T02:50:45;1.20;;;0.93;;
21615;SDS011;10970;48.714;9.584;2023-07-02T02:53:12;0.70;;;0.70;;
21615;SDS011;10970;48.714;9.584;2023-07-02T02:55:37;1.57;;;1.20;;
21615;SDS011;10970;48.714;9.584;2023-07-02T02:58:03;0.80;;;0.80;;
21615;SDS011;10970;48.714;9.584;2023-07-02T03:00:29;1.20;;;1.10;;
21615;SDS011;10970;48.714;9.584;2023-07-02T03:02:55;1.10;;;1.00;;
21615;SDS011;10970;48.714;9.584;2023-07-02T03:05:21;0.97;;;0.87;;
21615;SDS011;10970;48.714;9.584;2023-07-02T03:07:47;1.50;;;1.40;;
21615;SDS011;10970;48.714;9.584;2023-07-02T03:10:13;1.67;;;0.90;;
21615;SDS011;10970;48.714;9.584;2023-07-02T03:12:39;1.47;;;1.37;;
21615;SDS011;10970;48.714;9.584;2023-07-02T03:15:04;1.13;;;1.13;;
21615;SDS011;10970;48.714;9.584;2023-07-02T03:17:30;1.47;;;1.20;;
21615;SDS011;10970;48.714;9.584;2023-07-02T03:19:56;1.23;;;1.10;;
21615;SDS011;10970;48.714;9.584;2023-07-02T03:22:22;1.10;;;1.00;;
21615;SDS011;10970;48.714;9.584;2023-07-02T03:24:47;2.03;;;1.10;;
21615;SDS011;10970;48.714;9.584;2023-07-02T03:27:13;1.20;;;0.90;;
21615;SDS011;10970;48.714;9.584;2023-07-02T03:29:39;1.00;;;1.00;;
21615;SDS011;10970;48.714;9.584;2023-07-02T03:32:05;1.47;;;1.10;;
21615;SDS011;10970;48.714;9.584;2023-07-02T03:34:30;1.40;;;1.00;;
21615;SDS011;10970;48.714;9.584;2023-07-02T03:36:56;1.53;;;1.27;;
21615;SDS011;10970;48.714;9.584;2023-07-02T03:39:22;1.17;;;1.10;;
21615;SDS011;10970;48.714;9.584;2023-07-02T03:41:47;0.80;;;0.80;;
21615;SDS011;10970;48.714;9.584;2023-07-02T03:44:13;1.13;;;1.03;;
21615;SDS011;10970;48.714;9.584;2023-07-02T03:46:39;0.97;;;0.70;;
21615;SDS011;10970;48.714;9.584;2023-07-02T03:49:04;0.80;;;0.80;;
21615;SDS011;10970;48.714;9.584;2023-07-02T03:51:30;1.63;;;1.40;;
21615;SDS011;10970;48.714;9.584;2023-07-02T03:53:58;0.90;;;0.80;;
21615;SDS011;10970;48.714;9.584;2023-07-02T03:56:24;1.37;;;1.20;;
21615;SDS011;10970;48.714;9.584;2023-07-02T03:58:49;0.90;;;0.90;;
21615;SDS011;10970;48.714;9.584;2023-07-02T04:01:15;2.23;;;1.93;;
21615;SDS011;10970;48.714;9.584;2023-07-02T04:03:51;1.20;;;1.10;;
21615;SDS011;10970;48.714;9.584;2023-07-02T04:06:18;1.33;;;1.23;;
21615;SDS011;10970;48.714;9.584;2023-07-02T04:08:43;0.97;;;0.90;;
21615;SDS011;10970;48.714;9.584;2023-07-02T04:11:10;1.00;;;0.80;;
21615;SDS011;10970;48.714;9.584;2023-07-02T04:13:36;0.80;;;0.77;;
21615;SDS011;10970;48.714;9.584;2023-07-02T04:16:02;0.90;;;0.67;;
21615;SDS011;10970;48.714;9.584;2023-07-02T04:18:28;1.03;;;1.00;;
21615;SDS011;10970;48.714;9.584;2023-07-02T04:20:57;1.67;;;1.10;;
21615;SDS011;10970;48.714;9.584;2023-07-02T04:23:23;1.10;;;1.00;;
21615;SDS011;10970;48.714;9.584;2023-07-02T04:25:49;1.00;;;1.00;;
21615;SDS011;10970;48.714;9.584;2023-07-02T04:28:15;2.93;;;1.10;;
21615;SDS011;10970;48.714;9.584;2023-07-02T04:30:42;1.27;;;1.17;;
21615;SDS011;10970;48.714;9.584;2023-07-02T04:33:07;1.00;;;0.73;;
21615;SDS011;10970;48.714;9.584;2023-07-02T04:35:33;1.03;;;0.93;;
21615;SDS011;10970;48.714;9.584;2023-07-02T04:37:59;0.80;;;0.73;;
21615;SDS011;10970;48.714;9.584;2023-07-02T04:40:26;1.13;;;1.13;;
21615;SDS011;10970;48.714;9.584;2023-07-02T04:42:52;0.70;;;0.70;;
21615;SDS011;10970;48.714;9.584;2023-07-02T04:45:22;0.63;;;0.63;;
21615;SDS011;10970;48.714;9.584;2023-07-02T04:47:49;1.10;;;1.00;;
21615;SDS011;10970;48.714;9.584;2023-07-02T04:50:16;4.70;;;1.40;;
21615;SDS011;10970;48.714;9.584;2023-07-02T04:52:45;3.13;;;0.90;;
21615;SDS011;10970;48.714;9.584;2023-07-02T04:55:11;1.27;;;1.17;;
21615;SDS011;10970;48.714;9.584;2023-07-02T04:57:36;1.10;;;0.83;;
21615;SDS011;10970;48.714;9.584;2023-07-02T05:00:02;1.47;;;1.37;;
21615;SDS011;10970;48.714;9.584;2023-07-02T05:02:29;1.00;;;0.80;;
21615;SDS011;10970;48.714;9.584;2023-07-02T05:04:55;2.30;;;1.53;;
21615;SDS011;10970;48.714;9.584;2023-07-02T05:07:21;1.17;;;1.10;;
21615;SDS011;10970;48.714;9.584;2023-07-02T05:09:46;1.70;;;1.30;;
21615;SDS011;10970;48.714;9.584;2023-07-02T05:12:13;1.60;;;1.43;;
21615;SDS011;10970;48.714;9.584;2023-07-02T05:14:39;2.60;;;0.90;;
21615;SDS011;10970;48.714;9.584;2023-07-02T05:17:04;1.63;;;0.70;;
21615;SDS011;10970;48.714;9.584;2023-07-02T05:19:30;6.70;;;1.00;;
21615;SDS011;10970;48.714;9.584;2023-07-02T05:21:56;1.20;;;0.97;;
21615;SDS011;10970;48.714;9.584;2023-07-02T05:24:21;1.13;;;1.03;;
21615;SDS011;10970;48.714;9.584;2023-07-02T05:26:47;1.20;;;1.00;;
21615;SDS011;10970;48.714;9.584;2023-07-02T05:29:13;2.30;;;1.67;;
21615;SDS011;10970;48.714;9.584;2023-07-02T05:31:39;1.70;;;0.83;;
21615;SDS011;10970;48.714;9.584;2023-07-02T05:34:05;1.37;;;1.27;;
21615;SDS011;10970;48.714;9.584;2023-07-02T05:36:31;1.13;;;0.90;;
21615;SDS011;10970;48.714;9.584;2023-07-02T05:38:56;2.10;;;0.80;;
21615;SDS011;10970;48.714;9.584;2023-07-02T05:41:22;1.83;;;1.70;;
21615;SDS011;10970;48.714;9.584;2023-07-02T05:43:48;0.80;;;0.80;;
21615;SDS011;10970;48.714;9.584;2023-07-02T05:46:14;2.33;;;1.60;;
21615;SDS011;10970;48.714;9.584;2023-07-02T05:48:43;2.97;;;1.43;;
21615;SDS011;10970;48.714;9.584;2023-07-02T05:51:09;1.50;;;1.37;;
21615;SDS011;10970;48.714;9.584;2023-07-02T05:53:34;1.57;;;1.00;;
21615;SDS011;10970;48.714;9.584;2023-07-02T05:56:02;1.83;;;1.53;;
21615;SDS011;10970;48.714;9.584;2023-07-02T05:58:27;1.90;;;1.70;;
21615;SDS011;10970;48.714;9.584;2023-07-02T06:00:55;1.10;;;1.00;;
21615;SDS011;10970;48.714;9.584;2023-07-02T06:03:20;4.10;;;1.30;;
21615;SDS011;10970;48.714;9.584;2023-07-02T06:05:49;3.20;;;1.20;;
21615;SDS011;10970;48.714;9.584;2023-07-02T06:08:15;2.33;;;1.10;;
21615;SDS011;10970;48.714;9.584;2023-07-02T06:10:42;1.17;;;1.07;;
21615;SDS011;10970;48.714;9.584;2023-07-02T06:13:08;0.70;;;0.70;;
21615;SDS011;10970;48.714;9.584;2023-07-02T06:15:34;1.33;;;0.90;;
21615;SDS011;10970;48.714;9.584;2023-07-02T06:18:00;0.70;;;0.60;;
21615;SDS011;10970;48.714;9.584;2023-07-02T06:20:26;1.30;;;1.03;;
21615;SDS011;10970;48.714;9.584;2023-07-02T06:22:51;3.07;;;1.10;;
21615;SDS011;10970;48.714;9.584;2023-07-02T06:25:17;1.10;;;0.90;;
21615;SDS011;10970;48.714;9.584;2023-07-02T06:27:43;0.87;;;0.83;;
21615;SDS011;10970;48.714;9.584;2023-07-02T06:30:09;0.90;;;0.90;;
21615;SDS011;10970;48.714;9.584;2023-07-02T06:32:34;0.90;;;0.90;;
21615;SDS011;10970;48.714;9.584;2023-07-02T06:35:00;1.60;;;0.93;;
21615;SDS011;10970;48.714;9.584;2023-07-02T06:37:26;1.27;;;1.10;;
21615;SDS011;10970;48.714;9.584;2023-07-02T06:39:51;1.00;;;0.80;;
21615;SDS011;10970;48.714;9.584;2023-07-02T06:42:17;1.50;;;1.20;;
21615;SDS011;10970;48.714;9.584;2023-07-02T06:44:43;0.80;;;0.80;;
21615;SDS011;10970;48.714;9.584;2023-07-02T06:47:09;1.37;;;0.90;;
21615;SDS011;10970;48.714;9.584;2023-07-02T06:49:34;1.53;;;1.07;;
21615;SDS011;10970;48.714;9.584;2023-07-02T06:52:01;1.50;;;1.07;;
21615;SDS011;10970;48.714;9.584;2023-07-02T06:54:27;1.20;;;1.10;;
21615;SDS011;10970;48.714;9.584;2023-07-02T06:56:52;1.50;;;1.00;;
21615;SDS011;10970;48.714;9.584;2023-07-02T06:59:21;1.83;;;1.20;;
21615;SDS011;10970;48.714;9.584;2023-07-02T07:01:47;1.97;;;1.00;;
21615;SDS011;10970;48.714;9.584;2023-07-02T07:04:14;2.20;;;1.20;;
21615;SDS011;10970;48.714;9.584;2023-07-02T07:06:39;0.93;;;0.90;;
21615;SDS011;10970;48.714;9.584;2023-07-02T07:09:05;1.77;;;1.27;;
21615;SDS011;10970;48.714;9.584;2023-07-02T07:11:31;1.30;;;1.20;;
21615;SDS011;10970;48.714;9.584;2023-07-02T07:13:56;1.63;;;1.10;;
21615;SDS011;10970;48.714;9.584;2023-07-02T07:16:22;3.10;;;1.70;;
21615;SDS011;10970;48.714;9.584;2023-07-02T07:18:48;1.40;;;1.30;;
21615;SDS011;10970;48.714;9.584;2023-07-02T07:21:14;1.43;;;1.33;;
21615;SDS011;10970;48.714;9.584;2023-07-02T07:23:40;3.00;;;1.67;;
21615;SDS011;10970;48.714;9.584;2023-07-02T07:26:06;2.90;;;1.40;;
21615;SDS011;10970;48.714;9.584;2023-07-02T07:28:31;2.70;;;1.60;;
21615;SDS011;10970;48.714;9.584;2023-07-02T07:30:57;2.27;;;1.37;;
21615;SDS011;10970;48.714;9.584;2023-07-02T07:33:23;2.20;;;1.77;;
21615;SDS011;10970;48.714;9.584;2023-07-02T07:35:49;1.30;;;1.20;;
21615;SDS011;10970;48.714;9.584;2023-07-02T07:38:14;3.43;;;1.60;;
21615;SDS011;10970;48.714;9.584;2023-07-02T07:40:40;2.70;;;1.43;;
21615;SDS011;10970;48.714;9.584;2023-07-02T07:43:07;2.10;;;1.40;;
21615;SDS011;10970;48.714;9.584;2023-07-02T07:45:33;1.40;;;1.20;;
21615;SDS011;10970;48.714;9.584;2023-07-02T07:47:59;5.77;;;1.90;;
21615;SDS011;10970;48.714;9.584;2023-07-02T07:50:25;3.37;;;1.40;;
21615;SDS011;10970;48.714;9.584;2023-07-02T07:52:51;0.90;;;0.90;;
21615;SDS011;10970;48.714;9.584;2023-07-02T07:55:16;5.70;;;2.13;;
21615;SDS011;10970;48.714;9.584;2023-07-02T07:57:42;2.17;;;1.80;;
21615;SDS011;10970;48.714;9.584;2023-07-02T08:00:08;3.97;;;1.63;;
21615;SDS011;10970;48.714;9.584;2023-07-02T08:02:37;5.93;;;2.30;;
21615;SDS011;10970;48.714;9.584;2023-07-02T08:05:03;2.13;;;1.90;;
21615;SDS011;10970;48.714;9.584;2023-07-02T08:07:31;2.53;;;1.67;;
21615;SDS011;10970;48.714;9.584;2023-07-02T08:09:57;2.30;;;1.70;;
21615;SDS011;10970;48.714;9.584;2023-07-02T08:12:23;3.07;;;2.17;;
21615;SDS011;10970;48.714;9.584;2023-07-02T08:14:51;2.40;;;2.07;;
21615;SDS011;10970;48.714;9.584;2023-07-02T08:17:17;1.63;;;1.50;;
21615;SDS011;10970;48.714;9.584;2023-07-02T08:19:43;2.03;;;1.83;;
21615;SDS011;10970;48.714;9.584;2023-07-02T08:22:09;5.33;;;2.40;;
21615;SDS011;10970;48.714;9.584;2023-07-02T08:24:34;4.20;;;2.37;;
21615;SDS011;10970;48.714;9.584;2023-07-02T08:27:00;3.37;;;2.27;;
21615;SDS011;10970;48.714;9.584;2023-07-02T08:29:27;5.50;;;3.10;;
21615;SDS011;10970;48.714;9.584;2023-07-02T08:31:54;4.10;;;2.23;;
21615;SDS011;10970;48.714;9.584;2023-07-02T08:34:19;5.43;;;2.63;;
21615;SDS011;10970;48.714;9.584;2023-07-02T08:36:45;3.27;;;1.93;;
21615;SDS011;10970;48.714;9.584;2023-07-02T08:39:11;6.90;;;2.07;;
21615;SDS011;10970;48.714;9.584;2023-07-02T08:41:46;2.67;;;2.10;;
21615;SDS011;10970;48.714;9.584;2023-07-02T08:44:13;2.60;;;2.00;;
21615;SDS011;10970;48.714;9.584;2023-07-02T08:46:42;4.40;;;3.20;;
21615;SDS011;10970;48.714;9.584;2023-07-02T08:49:08;4.87;;;2.20;;
21615;SDS011;10970;48.714;9.584;2023-07-02T08:51:34;4.30;;;2.07;;
21615;SDS011;10970;48.714;9.584;2023-07-02T08:54:01;2.97;;;2.10;;
21615;SDS011;10970;48.714;9.584;2023-07-02T08:56:27;2.40;;;2.20;;
21615;SDS011;10970;48.714;9.584;2023-07-02T08:58:53;4.73;;;2.10;;
21615;SDS011;10970;48.714;9.584;2023-07-02T09:01:19;10.23;;;2.47;;
21615;SDS011;10970;48.714;9.584;2023-07-02T09:03:45;3.93;;;2.10;;
21615;SDS011;10970;48.714;9.584;2023-07-02T09:06:11;2.90;;;2.00;;
21615;SDS011;10970;48.714;9.584;2023-07-02T09:08:38;4.20;;;3.43;;
21615;SDS011;10970;48.714;9.584;2023-07-02T09:13:45;2.30;;;1.70;;
21615;SDS011;10970;48.714;9.584;2023-07-02T09:16:27;4.07;;;2.63;;
21615;SDS011;10970;48.714;9.584;2023-07-02T09:19:04;3.67;;;2.40;;
21615;SDS011;10970;48.714;9.584;2023-07-02T09:21:49;3.80;;;2.87;;
21615;SDS011;10970;48.714;9.584;2023-07-02T09:24:21;3.53;;;1.93;;
21615;SDS011;10970;48.714;9.584;2023-07-02T09:29:24;3.40;;;2.33;;
21615;SDS011;10970;48.714;9.584;2023-07-02T09:32:00;3.63;;;2.63;;
21615;SDS011;10970;48.714;9.584;2023-07-02T09:34:33;5.00;;;2.43;;
21615;SDS011;10970;48.714;9.584;2023-07-02T09:37:03;2.93;;;2.10;;
21615;SDS011;10970;48.714;9.584;2023-07-02T09:39:31;4.40;;;2.93;;
21615;SDS011;10970;48.714;9.584;2023-07-02T09:41:58;5.27;;;2.83;;
21615;SDS011;10970;48.714;9.584;2023-07-02T09:44:29;6.30;;;2.33;;
21615;SDS011;10970;48.714;9.584;2023-07-02T09:47:08;5.00;;;2.57;;
21615;SDS011;10970;48.714;9.584;2023-07-02T09:49:36;4.10;;;2.80;;
21615;SDS011;10970;48.714;9.584;2023-07-02T09:52:09;4.33;;;2.40;;
21615;SDS011;10970;48.714;9.584;2023-07-02T09:54:35;3.70;;;2.50;;
21615;SDS011;10970;48.714;9.584;2023-07-02T09:57:02;3.33;;;2.30;;
21615;SDS011;10970;48.714;9.584;2023-07-02T09:59:28;3.17;;;2.50;;
21615;SDS011;10970;48.714;9.584;2023-07-02T10:01:55;7.60;;;2.60;;
21615;SDS011;10970;48.714;9.584;2023-07-02T10:04:21;3.27;;;2.63;;
21615;SDS011;10970;48.714;9.584;2023-07-02T10:09:17;11.27;;;3.70;;
21615;SDS011;10970;48.714;9.584;2023-07-02T10:11:46;5.20;;;2.77;;
21615;SDS011;10970;48.714;9.584;2023-07-02T10:14:12;4.83;;;3.20;;
21615;SDS011;10970;48.714;9.584;2023-07-02T10:16:54;4.27;;;2.70;;
21615;SDS011;10970;48.714;9.584;2023-07-02T10:19:21;4.03;;;2.60;;
21615;SDS011;10970;48.714;9.584;2023-07-02T10:21:48;5.83;;;2.23;;
21615;SDS011;10970;48.714;9.584;2023-07-02T10:24:26;3.83;;;2.40;;
21615;SDS011;10970;48.714;9.584;2023-07-02T10:26:57;3.20;;;2.60;;
21615;SDS011;10970;48.714;9.584;2023-07-02T10:29:24;2.10;;;1.63;;
21615;SDS011;10970;48.714;9.584;2023-07-02T10:31:52;4.83;;;2.03;;
21615;SDS011;10970;48.714;9.584;2023-07-02T10:34:54;2.40;;;1.87;;
21615;SDS011;10970;48.714;9.584;2023-07-02T10:37:13;1.83;;;1.60;;
21615;SDS011;10970;48.714;9.584;2023-07-02T10:39:38;3.97;;;2.67;;
21615;SDS011;10970;48.714;9.584;2023-07-02T10:42:07;3.93;;;2.73;;
21615;SDS011;10970;48.714;9.584;2023-07-02T10:44:34;3.33;;;2.13;;
21615;SDS011;10970;48.714;9.584;2023-07-02T10:47:12;3.47;;;1.77;;
21615;SDS011;10970;48.714;9.584;2023-07-02T10:49:37;5.40;;;2.37;;
21615;SDS011;10970;48.714;9.584;2023-07-02T10:52:03;3.37;;;2.20;;
21615;SDS011;10970;48.714;9.584;2023-07-02T10:54:45;5.27;;;3.03;;
21615;SDS011;10970;48.714;9.584;2023-07-02T10:57:15;6.43;;;3.03;;
21615;SDS011;10970;48.714;9.584;2023-07-02T10:59:45;6.40;;;3.90;;
21615;SDS011;10970;48.714;9.584;2023-07-02T11:02:11;6.27;;;3.20;;
21615;SDS011;10970;48.714;9.584;2023-07-02T11:04:37;4.77;;;3.00;;
21615;SDS011;10970;48.714;9.584;2023-07-02T11:07:04;4.43;;;2.90;;
21615;SDS011;10970;48.714;9.584;2023-07-02T11:09:30;6.70;;;3.70;;
21615;SDS011;10970;48.714;9.584;2023-07-02T11:11:56;4.13;;;2.93;;
21615;SDS011;10970;48.714;9.584;2023-07-02T11:16:59;4.10;;;2.33;;
21615;SDS011;10970;48.714;9.584;2023-07-02T11:19:30;3.53;;;2.97;;
21615;SDS011;10970;48.714;9.584;2023-07-02T11:21:57;5.87;;;3.13;;
21615;SDS011;10970;48.714;9.584;2023-07-02T11:24:27;6.00;;;4.10;;
21615;SDS011;10970;48.714;9.584;2023-07-02T11:26:55;6.67;;;3.47;;
21615;SDS011;10970;48.714;9.584;2023-07-02T11:29:21;3.70;;;2.60;;
21615;SDS011;10970;48.714;9.584;2023-07-02T11:31:47;2.83;;;2.50;;
21615;SDS011;10970;48.714;9.584;2023-07-02T11:34:17;12.23;;;3.40;;
21615;SDS011;10970;48.714;9.584;2023-07-02T11:36:44;6.80;;;3.50;;
21615;SDS011;10970;48.714;9.584;2023-07-02T11:39:10;3.50;;;2.83;;
21615;SDS011;10970;48.714;9.584;2023-07-02T11:41:40;5.20;;;3.43;;
21615;SDS011;10970;48.714;9.584;2023-07-02T11:44:07;3.23;;;2.20;;
21615;SDS011;10970;48.714;9.584;2023-07-02T11:46:33;5.27;;;3.60;;
21615;SDS011;10970;48.714;9.584;2023-07-02T11:49:00;5.23;;;3.00;;
21615;SDS011;10970;48.714;9.584;2023-07-02T11:51:26;3.77;;;2.73;;
21615;SDS011;10970;48.714;9.584;2023-07-02T11:53:52;7.20;;;3.57;;
21615;SDS011;10970;48.714;9.584;2023-07-02T11:56:17;3.43;;;2.37;;
21615;SDS011;10970;48.714;9.584;2023-07-02T11:58:43;5.10;;;3.10;;
21615;SDS011;10970;48.714;9.584;2023-07-02T12:01:09;3.97;;;2.53;;
21615;SDS011;10970;48.714;9.584;2023-07-02T12:03:34;3.27;;;2.10;;
21615;SDS011;10970;48.714;9.584;2023-07-02T12:06:00;2.60;;;1.93;;
21615;SDS011;10970;48.714;9.584;2023-07-02T12:08:26;3.37;;;2.70;;
21615;SDS011;10970;48.714;9.584;2023-07-02T12:10:52;3.20;;;2.43;;
21615;SDS011;10970;48.714;9.584;2023-07-02T12:13:17;3.50;;;2.20;;
21615;SDS011;10970;48.714;9.584;2023-07-02T12:15:43;3.00;;;2.57;;
21615;SDS011;10970;48.714;9.584;2023-07-02T12:18:09;5.50;;;2.90;;
21615;SDS011;10970;48.714;9.584;2023-07-02T12:20:35;4.37;;;2.90;;
21615;SDS011;10970;48.714;9.584;2023-07-02T12:23:01;3.43;;;1.83;;
21615;SDS011;10970;48.714;9.584;2023-07-02T12:25:27;6.63;;;3.27;;
21615;SDS011;10970;48.714;9.584;2023-07-02T12:27:52;3.33;;;2.50;;
21615;SDS011;10970;48.714;9.584;2023-07-02T12:30:18;2.17;;;1.87;;
21615;SDS011;10970;48.714;9.584;2023-07-02T12:32:44;3.73;;;2.67;;
21615;SDS011;10970;48.714;9.584;2023-07-02T12:35:10;2.00;;;1.73;;
21615;SDS011;10970;48.714;9.584;2023-07-02T12:37:46;7.67;;;3.27;;
21615;SDS011;10970;48.714;9.584;2023-07-02T12:40:13;4.70;;;2.60;;
21615;SDS011;10970;48.714;9.584;2023-07-02T12:42:40;5.00;;;2.37;;
21615;SDS011;10970;48.714;9.584;2023-07-02T12:45:07;2.93;;;2.33;;
21615;SDS011;10970;48.714;9.584;2023-07-02T12:47:34;3.30;;;2.53;;
21615;SDS011;10970;48.714;9.584;2023-07-02T12:50:00;2.40;;;2.20;;
21615;SDS011;10970;48.714;9.584;2023-07-02T12:52:25;3.73;;;2.30;;
21615;SDS011;10970;48.714;9.584;2023-07-02T12:54:51;3.53;;;2.27;;
21615;SDS011;10970;48.714;9.584;2023-07-02T12:57:17;3.60;;;2.10;;
21615;SDS011;10970;48.714;9.584;2023-07-02T12:59:43;3.57;;;2.07;;
21615;SDS011;10970;48.714;9.584;2023-07-02T13:02:09;10.10;;;3.80;;
21615;SDS011;10970;48.714;9.584;2023-07-02T13:04:36;2.90;;;2.20;;
21615;SDS011;10970;48.714;9.584;2023-07-02T13:07:02;3.70;;;2.30;;
21615;SDS011;10970;48.714;9.584;2023-07-02T13:09:27;5.67;;;2.57;;
21615;SDS011;10970;48.714;9.584;2023-07-02T13:11:53;4.40;;;3.30;;
21615;SDS011;10970;48.714;9.584;2023-07-02T13:14:19;5.90;;;3.07;;
21615;SDS011;10970;48.714;9.584;2023-07-02T13:16:44;5.40;;;2.37;;
21615;SDS011;10970;48.714;9.584;2023-07-02T13:19:10;3.10;;;2.80;;
21615;SDS011;10970;48.714;9.584;2023-07-02T13:21:36;3.83;;;2.37;;
21615;SDS011;10970;48.714;9.584;2023-07-02T13:24:02;3.50;;;2.23;;
21615;SDS011;10970;48.714;9.584;2023-07-02T13:26:28;2.67;;;2.20;;
21615;SDS011;10970;48.714;9.584;2023-07-02T13:28:53;2.87;;;2.27;;
21615;SDS011;10970;48.714;9.584;2023-07-02T13:31:19;4.77;;;2.80;;
21615;SDS011;10970;48.714;9.584;2023-07-02T13:33:45;4.43;;;2.40;;
21615;SDS011;10970;48.714;9.584;2023-07-02T13:36:14;5.60;;;2.70;;
21615;SDS011;10970;48.714;9.584;2023-07-02T13:38:40;2.60;;;2.10;;
21615;SDS011;10970;48.714;9.584;2023-07-02T13:41:05;3.53;;;2.40;;
21615;SDS011;10970;48.714;9.584;2023-07-02T13:43:31;2.50;;;2.30;;
21615;SDS011;10970;48.714;9.584;2023-07-02T13:45:57;3.43;;;3.00;;
21615;SDS011;10970;48.714;9.584;2023-07-02T13:48:23;2.80;;;2.30;;
21615;SDS011;10970;48.714;9.584;2023-07-02T13:50:48;3.97;;;2.13;;
21615;SDS011;10970;48.714;9.584;2023-07-02T13:53:14;3.73;;;2.20;;
21615;SDS011;10970;48.714;9.584;2023-07-02T13:55:40;4.00;;;2.77;;
21615;SDS011;10970;48.714;9.584;2023-07-02T13:58:05;3.00;;;2.67;;
21615;SDS011;10970;48.714;9.584;2023-07-02T14:00:31;3.80;;;2.47;;
21615;SDS011;10970;48.714;9.584;2023-07-02T14:02:56;5.53;;;2.50;;
21615;SDS011;10970;48.714;9.584;2023-07-02T14:05:23;3.10;;;1.83;;
21615;SDS011;10970;48.714;9.584;2023-07-02T14:07:48;5.00;;;3.00;;
21615;SDS011;10970;48.714;9.584;2023-07-02T14:10:14;4.23;;;2.90;;
21615;SDS011;10970;48.714;9.584;2023-07-02T14:12:41;5.23;;;3.30;;
21615;SDS011;10970;48.714;9.584;2023-07-02T14:15:07;4.17;;;2.60;;
21615;SDS011;10970;48.714;9.584;2023-07-02T14:17:34;4.90;;;3.10;;
21615;SDS011;10970;48.714;9.584;2023-07-02T14:20:00;6.10;;;2.47;;
21615;SDS011;10970;48.714;9.584;2023-07-02T14:22:26;4.90;;;3.37;;
21615;SDS011;10970;48.714;9.584;2023-07-02T14:24:51;4.00;;;2.53;;
21615;SDS011;10970;48.714;9.584;2023-07-02T14:27:17;3.47;;;2.30;;
21615;SDS011;10970;48.714;9.584;2023-07-02T14:29:43;5.13;;;1.77;;
21615;SDS011;10970;48.714;9.584;2023-07-02T14:32:08;6.90;;;3.53;;
21615;SDS011;10970;48.714;9.584;2023-07-02T14:34:34;2.97;;;2.57;;
21615;SDS011;10970;48.714;9.584;2023-07-02T14:37:01;5.37;;;2.70;;
21615;SDS011;10970;48.714;9.584;2023-07-02T14:39:27;2.40;;;1.83;;
21615;SDS011;10970;48.714;9.584;2023-07-02T14:41:53;5.33;;;3.03;;
21615;SDS011;10970;48.714;9.584;2023-07-02T14:44:18;4.30;;;2.90;;
21615;SDS011;10970;48.714;9.584;2023-07-02T14:46:44;3.20;;;2.50;;
21615;SDS011;10970;48.714;9.584;2023-07-02T14:49:10;2.20;;;2.00;;
21615;SDS011;10970;48.714;9.584;2023-07-02T14:51:35;7.37;;;2.30;;
21615;SDS011;10970;48.714;9.584;2023-07-02T14:54:01;4.10;;;2.77;;
21615;SDS011;10970;48.714;9.584;2023-07-02T14:56:29;2.47;;;1.97;;